sensor_id;sensor_type;location;lat;lon;timestamp;temperature;humidity
5415;DHT22;2730;51.512;7.504;2023-09-19T00:02:21;16.30;1.00
5415;DHT22;2730;51.512;7.504;2023-09-19T00:04:48;16.20;1.00
5415;DHT22;2730;51.512;7.504;2023-09-19T00:07:15;16.10;1.00
5415;DHT22;2730;51.512;7.504;2023-09-19T00:09:42;16.10;1.00
5415;DHT22;2730;51.512;7.504;2023-09-19T00:12:09;16.00;1.00
5415;DHT22;2730;51.512;7.504;2023-09-19T00:14:38;16.00;1.00
5415;DHT22;2730;51.512;7.504;2023-09-19T00:17:05;15.90;1.00
5415;DHT22;2730;51.512;7.504;2023-09-19T00:19:35;15.80;1.00
5415;DHT22;2730;51.512;7.504;2023-09-19T00:22:03;15.80;1.00
5415;DHT22;2730;51.512;7.504;2023-09-19T00:24:30;15.80;1.00
5415;DHT22;2730;51.512;7.504;2023-09-19T00:26:57;15.70;1.00
5415;DHT22;2730;51.512;7.504;2023-09-19T00:29:25;15.70;1.00
5415;DHT22;2730;51.512;7.504;2023-09-19T00:31:54;15.70;1.00
5415;DHT22;2730;51.512;7.504;2023-09-19T00:34:21;15.70;1.00
5415;DHT22;2730;51.512;7.504;2023-09-19T00:36:50;15.70;1.00
5415;DHT22;2730;51.512;7.504;2023-09-19T00:39:18;15.70;1.00
5415;DHT22;2730;51.512;7.504;2023-09-19T00:41:45;15.70;1.00
5415;DHT22;2730;51.512;7.504;2023-09-19T00:44:12;15.60;1.00
5415;DHT22;2730;51.512;7.504;2023-09-19T00:46:41;15.50;1.00
5415;DHT22;2730;51.512;7.504;2023-09-19T00:49:08;15.50;1.00
5415;DHT22;2730;51.512;7.504;2023-09-19T00:51:36;15.50;1.00
5415;DHT22;2730;51.512;7.504;2023-09-19T00:54:05;15.40;1.00
5415;DHT22;2730;51.512;7.504;2023-09-19T00:56:32;15.40;1.00
5415;DHT22;2730;51.512;7.504;2023-09-19T00:58:59;15.40;1.00
5415;DHT22;2730;51.512;7.504;2023-09-19T01:01:27;15.40;1.00
5415;DHT22;2730;51.512;7.504;2023-09-19T01:03:53;15.40;1.00
5415;DHT22;2730;51.512;7.504;2023-09-19T01:06:20;15.40;1.00
5415;DHT22;2730;51.512;7.504;2023-09-19T01:08:47;15.40;99.90
5415;DHT22;2730;51.512;7.504;2023-09-19T01:11:20;15.30;99.90
5415;DHT22;2730;51.512;7.504;2023-09-19T01:13:56;15.30;50.20
5415;DHT22;2730;51.512;7.504;2023-09-19T01:16:32;15.30;46.30
5415;DHT22;2730;51.512;7.504;2023-09-19T01:21:57;15.30;1.00
5415;DHT22;2730;51.512;7.504;2023-09-19T01:25:04;15.20;1.00
5415;DHT22;2730;51.512;7.504;2023-09-19T01:30:33;15.20;99.90
5415;DHT22;2730;51.512;7.504;2023-09-19T01:33:02;15.10;99.90
5415;DHT22;2730;51.512;7.504;2023-09-19T01:35:29;15.20;1.00
5415;DHT22;2730;51.512;7.504;2023-09-19T01:37:56;15.20;99.90
5415;DHT22;2730;51.512;7.504;2023-09-19T01:40:23;15.20;1.00
5415;DHT22;2730;51.512;7.504;2023-09-19T01:42:54;15.20;1.00
5415;DHT22;2730;51.512;7.504;2023-09-19T01:45:27;15.10;99.90
5415;DHT22;2730;51.512;7.504;2023-09-19T01:48:11;15.10;1.00
5415;DHT22;2730;51.512;7.504;2023-09-19T01:50:44;15.10;1.00
5415;DHT22;2730;51.512;7.504;2023-09-19T01:53:19;15.10;1.00
5415;DHT22;2730;51.512;7.504;2023-09-19T01:55:49;15.10;1.00
5415;DHT22;2730;51.512;7.504;2023-09-19T01:58:21;15.00;99.90
5415;DHT22;2730;51.512;7.504;2023-09-19T02:00:52;15.00;44.90
5415;DHT22;2730;51.512;7.504;2023-09-19T02:03:21;15.00;99.90
5415;DHT22;2730;51.512;7.504;2023-09-19T02:05:49;14.90;99.90
5415;DHT22;2730;51.512;7.504;2023-09-19T02:08:17;14.90;1.00
5415;DHT22;2730;51.512;7.504;2023-09-19T02:10:44;14.90;99.90
5415;DHT22;2730;51.512;7.504;2023-09-19T02:13:15;14.90;1.00
5415;DHT22;2730;51.512;7.504;2023-09-19T02:15:43;14.90;99.90
5415;DHT22;2730;51.512;7.504;2023-09-19T02:18:10;14.80;1.00
5415;DHT22;2730;51.512;7.504;2023-09-19T02:20:39;14.90;99.90
5415;DHT22;2730;51.512;7.504;2023-09-19T02:23:06;14.80;99.90
5415;DHT22;2730;51.512;7.504;2023-09-19T02:25:34;14.80;78.90
5415;DHT22;2730;51.512;7.504;2023-09-19T02:28:01;14.80;30.70
5415;DHT22;2730;51.512;7.504;2023-09-19T02:30:28;14.80;99.90
5415;DHT22;2730;51.512;7.504;2023-09-19T02:32:55;14.90;1.00
5415;DHT22;2730;51.512;7.504;2023-09-19T02:35:22;14.80;99.90
5415;DHT22;2730;51.512;7.504;2023-09-19T02:37:50;14.80;1.00
5415;DHT22;2730;51.512;7.504;2023-09-19T02:40:17;14.80;1.00
5415;DHT22;2730;51.512;7.504;2023-09-19T02:42:48;14.80;1.00
5415;DHT22;2730;51.512;7.504;2023-09-19T02:45:16;14.80;99.90
5415;DHT22;2730;51.512;7.504;2023-09-19T02:47:44;14.70;1.00
5415;DHT22;2730;51.512;7.504;2023-09-19T02:50:11;14.80;99.90
5415;DHT22;2730;51.512;7.504;2023-09-19T02:52:40;14.80;99.90
5415;DHT22;2730;51.512;7.504;2023-09-19T02:55:09;14.80;1.00
5415;DHT22;2730;51.512;7.504;2023-09-19T02:57:37;14.80;99.90
5415;DHT22;2730;51.512;7.504;2023-09-19T03:00:07;14.80;99.90
5415;DHT22;2730;51.512;7.504;2023-09-19T03:02:35;14.80;99.90
5415;DHT22;2730;51.512;7.504;2023-09-19T03:05:04;14.80;18.10
5415;DHT22;2730;51.512;7.504;2023-09-19T03:07:31;14.90;1.00
5415;DHT22;2730;51.512;7.504;2023-09-19T03:09:57;14.90;59.60
5415;DHT22;2730;51.512;7.504;2023-09-19T03:12:26;14.80;99.90
5415;DHT22;2730;51.512;7.504;2023-09-19T03:14:53;14.80;99.90
5415;DHT22;2730;51.512;7.504;2023-09-19T03:17:21;14.80;97.30
5415;DHT22;2730;51.512;7.504;2023-09-19T03:19:47;14.70;99.90
5415;DHT22;2730;51.512;7.504;2023-09-19T03:22:14;14.70;99.90
5415;DHT22;2730;51.512;7.504;2023-09-19T03:24:41;14.70;1.00
5415;DHT22;2730;51.512;7.504;2023-09-19T03:27:09;14.80;1.00
5415;DHT22;2730;51.512;7.504;2023-09-19T03:29:37;14.80;1.00
5415;DHT22;2730;51.512;7.504;2023-09-19T03:32:05;14.80;99.90
5415;DHT22;2730;51.512;7.504;2023-09-19T03:34:31;14.70;99.90
5415;DHT22;2730;51.512;7.504;2023-09-19T03:36:58;14.80;99.90
5415;DHT22;2730;51.512;7.504;2023-09-19T03:39:25;14.70;99.90
5415;DHT22;2730;51.512;7.504;2023-09-19T03:41:52;14.70;99.90
5415;DHT22;2730;51.512;7.504;2023-09-19T03:44:18;14.70;69.80
5415;DHT22;2730;51.512;7.504;2023-09-19T03:46:47;14.70;47.10
5415;DHT22;2730;51.512;7.504;2023-09-19T03:49:13;14.70;1.00
5415;DHT22;2730;51.512;7.504;2023-09-19T03:51:40;14.70;1.00
5415;DHT22;2730;51.512;7.504;2023-09-19T03:54:07;14.70;99.90
5415;DHT22;2730;51.512;7.504;2023-09-19T03:56:34;14.70;99.90
5415;DHT22;2730;51.512;7.504;2023-09-19T03:59:01;14.60;1.00
5415;DHT22;2730;51.512;7.504;2023-09-19T04:01:28;14.60;99.90
5415;DHT22;2730;51.512;7.504;2023-09-19T04:03:58;14.60;99.90
5415;DHT22;2730;51.512;7.504;2023-09-19T04:06:33;14.60;99.90
5415;DHT22;2730;51.512;7.504;2023-09-19T04:09:00;14.50;99.90
5415;DHT22;2730;51.512;7.504;2023-09-19T04:11:27;14.50;99.90
5415;DHT22;2730;51.512;7.504;2023-09-19T04:13:54;14.40;99.90
5415;DHT22;2730;51.512;7.504;2023-09-19T04:16:21;14.40;99.90
5415;DHT22;2730;51.512;7.504;2023-09-19T04:18:47;14.40;99.90
5415;DHT22;2730;51.512;7.504;2023-09-19T04:21:15;14.40;99.90
5415;DHT22;2730;51.512;7.504;2023-09-19T04:23:42;14.30;99.90
5415;DHT22;2730;51.512;7.504;2023-09-19T04:26:09;14.20;99.90
5415;DHT22;2730;51.512;7.504;2023-09-19T04:28:37;14.20;99.90
5415;DHT22;2730;51.512;7.504;2023-09-19T04:31:05;14.20;99.90
5415;DHT22;2730;51.512;7.504;2023-09-19T04:33:33;14.40;99.90
5415;DHT22;2730;51.512;7.504;2023-09-19T04:36:00;14.30;99.90
5415;DHT22;2730;51.512;7.504;2023-09-19T04:38:30;14.20;99.90
5415;DHT22;2730;51.512;7.504;2023-09-19T04:40:57;14.20;1.00
5415;DHT22;2730;51.512;7.504;2023-09-19T04:43:25;14.20;1.00
5415;DHT22;2730;51.512;7.504;2023-09-19T04:45:52;14.20;1.00
5415;DHT22;2730;51.512;7.504;2023-09-19T04:48:21;14.20;1.00
5415;DHT22;2730;51.512;7.504;2023-09-19T04:50:49;14.20;1.00
5415;DHT22;2730;51.512;7.504;2023-09-19T04:53:16;14.20;1.00
5415;DHT22;2730;51.512;7.504;2023-09-19T04:55:50;14.20;1.00
5415;DHT22;2730;51.512;7.504;2023-09-19T04:58:18;14.20;1.00
5415;DHT22;2730;51.512;7.504;2023-09-19T05:00:45;14.20;1.00
5415;DHT22;2730;51.512;7.504;2023-09-19T05:03:11;14.10;8.40
5415;DHT22;2730;51.512;7.504;2023-09-19T05:05:38;14.20;1.00
5415;DHT22;2730;51.512;7.504;2023-09-19T05:08:06;14.20;3.60
5415;DHT22;2730;51.512;7.504;2023-09-19T05:10:35;14.10;13.80
5415;DHT22;2730;51.512;7.504;2023-09-19T05:13:04;14.20;99.90
5415;DHT22;2730;51.512;7.504;2023-09-19T05:15:33;14.10;99.90
5415;DHT22;2730;51.512;7.504;2023-09-19T05:18:01;14.10;99.90
5415;DHT22;2730;51.512;7.504;2023-09-19T05:20:28;14.10;99.90
5415;DHT22;2730;51.512;7.504;2023-09-19T05:22:59;14.10;99.90
5415;DHT22;2730;51.512;7.504;2023-09-19T05:25:27;14.20;13.00
5415;DHT22;2730;51.512;7.504;2023-09-19T05:27:56;14.20;66.10
5415;DHT22;2730;51.512;7.504;2023-09-19T05:30:25;14.20;1.00
5415;DHT22;2730;51.512;7.504;2023-09-19T05:32:54;14.30;1.00
5415;DHT22;2730;51.512;7.504;2023-09-19T05:35:21;14.20;1.00
5415;DHT22;2730;51.512;7.504;2023-09-19T05:37:49;14.30;1.00
5415;DHT22;2730;51.512;7.504;2023-09-19T05:40:17;14.30;1.00
5415;DHT22;2730;51.512;7.504;2023-09-19T05:42:43;14.30;1.00
5415;DHT22;2730;51.512;7.504;2023-09-19T05:45:10;14.30;1.00
5415;DHT22;2730;51.512;7.504;2023-09-19T05:47:39;14.30;1.00
5415;DHT22;2730;51.512;7.504;2023-09-19T05:50:11;14.30;1.00
5415;DHT22;2730;51.512;7.504;2023-09-19T05:52:38;14.30;1.00
5415;DHT22;2730;51.512;7.504;2023-09-19T05:55:07;14.30;1.00
5415;DHT22;2730;51.512;7.504;2023-09-19T05:57:33;14.40;1.00
5415;DHT22;2730;51.512;7.504;2023-09-19T06:00:00;14.50;1.00
5415;DHT22;2730;51.512;7.504;2023-09-19T06:02:29;14.60;99.90
5415;DHT22;2730;51.512;7.504;2023-09-19T06:04:57;14.60;99.90
5415;DHT22;2730;51.512;7.504;2023-09-19T06:07:24;14.60;99.90
5415;DHT22;2730;51.512;7.504;2023-09-19T06:09:53;14.60;99.90
5415;DHT22;2730;51.512;7.504;2023-09-19T06:12:20;14.60;99.90
5415;DHT22;2730;51.512;7.504;2023-09-19T06:14:46;14.70;99.90
5415;DHT22;2730;51.512;7.504;2023-09-19T06:17:14;14.70;99.90
5415;DHT22;2730;51.512;7.504;2023-09-19T06:19:42;14.80;99.90
5415;DHT22;2730;51.512;7.504;2023-09-19T06:22:15;14.90;1.00
5415;DHT22;2730;51.512;7.504;2023-09-19T06:24:41;14.90;1.00
5415;DHT22;2730;51.512;7.504;2023-09-19T06:27:08;15.00;1.00
5415;DHT22;2730;51.512;7.504;2023-09-19T06:29:35;15.10;1.00
5415;DHT22;2730;51.512;7.504;2023-09-19T06:32:07;15.10;1.00
5415;DHT22;2730;51.512;7.504;2023-09-19T06:34:34;15.20;1.00
5415;DHT22;2730;51.512;7.504;2023-09-19T06:37:01;15.20;1.00
5415;DHT22;2730;51.512;7.504;2023-09-19T06:39:30;15.30;1.00
5415;DHT22;2730;51.512;7.504;2023-09-19T06:41:57;15.30;1.00
5415;DHT22;2730;51.512;7.504;2023-09-19T06:44:27;15.40;1.00
5415;DHT22;2730;51.512;7.504;2023-09-19T06:46:55;15.40;99.90
5415;DHT22;2730;51.512;7.504;2023-09-19T06:49:22;15.50;99.90
5415;DHT22;2730;51.512;7.504;2023-09-19T06:51:49;15.60;99.90
5415;DHT22;2730;51.512;7.504;2023-09-19T06:54:16;15.60;99.90
5415;DHT22;2730;51.512;7.504;2023-09-19T06:56:45;15.50;99.90
5415;DHT22;2730;51.512;7.504;2023-09-19T06:59:11;15.60;99.90
5415;DHT22;2730;51.512;7.504;2023-09-19T07:01:40;15.50;99.90
5415;DHT22;2730;51.512;7.504;2023-09-19T07:04:10;15.60;99.90
5415;DHT22;2730;51.512;7.504;2023-09-19T07:06:38;15.70;99.90
5415;DHT22;2730;51.512;7.504;2023-09-19T07:09:05;15.70;99.90
5415;DHT22;2730;51.512;7.504;2023-09-19T07:11:33;15.80;99.90
5415;DHT22;2730;51.512;7.504;2023-09-19T07:14:02;15.90;95.40
5415;DHT22;2730;51.512;7.504;2023-09-19T07:16:31;16.00;99.90
5415;DHT22;2730;51.512;7.504;2023-09-19T07:18:58;16.00;67.90
5415;DHT22;2730;51.512;7.504;2023-09-19T07:21:25;16.00;1.00
5415;DHT22;2730;51.512;7.504;2023-09-19T07:23:51;16.10;25.00
5415;DHT22;2730;51.512;7.504;2023-09-19T07:26:18;16.20;12.30
5415;DHT22;2730;51.512;7.504;2023-09-19T07:28:45;16.30;1.00
5415;DHT22;2730;51.512;7.504;2023-09-19T07:31:13;16.30;1.00
5415;DHT22;2730;51.512;7.504;2023-09-19T07:33:40;16.30;1.00
5415;DHT22;2730;51.512;7.504;2023-09-19T07:36:10;16.50;1.00
5415;DHT22;2730;51.512;7.504;2023-09-19T07:38:39;16.50;1.00
5415;DHT22;2730;51.512;7.504;2023-09-19T07:41:06;16.50;1.00
5415;DHT22;2730;51.512;7.504;2023-09-19T07:43:34;16.70;1.00
5415;DHT22;2730;51.512;7.504;2023-09-19T07:46:03;16.80;1.00
5415;DHT22;2730;51.512;7.504;2023-09-19T07:48:33;16.70;1.00
5415;DHT22;2730;51.512;7.504;2023-09-19T07:51:04;16.90;1.00
5415;DHT22;2730;51.512;7.504;2023-09-19T07:53:32;17.00;1.00
5415;DHT22;2730;51.512;7.504;2023-09-19T07:56:04;17.00;1.00
5415;DHT22;2730;51.512;7.504;2023-09-19T07:58:31;17.20;1.00
5415;DHT22;2730;51.512;7.504;2023-09-19T08:01:03;17.40;99.90
5415;DHT22;2730;51.512;7.504;2023-09-19T08:03:30;17.50;99.90
5415;DHT22;2730;51.512;7.504;2023-09-19T08:05:58;17.60;99.90
5415;DHT22;2730;51.512;7.504;2023-09-19T08:08:26;17.80;99.90
5415;DHT22;2730;51.512;7.504;2023-09-19T08:10:53;18.00;99.90
5415;DHT22;2730;51.512;7.504;2023-09-19T08:13:22;18.00;99.90
5415;DHT22;2730;51.512;7.504;2023-09-19T08:15:49;18.00;99.90
5415;DHT22;2730;51.512;7.504;2023-09-19T08:18:16;18.20;99.90
5415;DHT22;2730;51.512;7.504;2023-09-19T08:20:48;18.40;99.90
5415;DHT22;2730;51.512;7.504;2023-09-19T08:23:17;18.60;65.80
5415;DHT22;2730;51.512;7.504;2023-09-19T08:25:45;18.80;1.00
5415;DHT22;2730;51.512;7.504;2023-09-19T08:28:12;19.00;1.00
5415;DHT22;2730;51.512;7.504;2023-09-19T08:30:43;19.00;1.00
5415;DHT22;2730;51.512;7.504;2023-09-19T08:33:10;19.30;1.00
5415;DHT22;2730;51.512;7.504;2023-09-19T08:35:37;19.60;1.00
5415;DHT22;2730;51.512;7.504;2023-09-19T08:38:05;19.30;1.00
5415;DHT22;2730;51.512;7.504;2023-09-19T08:40:36;19.00;1.00
5415;DHT22;2730;51.512;7.504;2023-09-19T08:43:05;19.00;1.00
5415;DHT22;2730;51.512;7.504;2023-09-19T08:45:32;18.70;1.00
5415;DHT22;2730;51.512;7.504;2023-09-19T08:48:08;19.00;1.00
5415;DHT22;2730;51.512;7.504;2023-09-19T08:50:43;19.10;1.00
5415;DHT22;2730;51.512;7.504;2023-09-19T08:53:19;19.20;1.00
5415;DHT22;2730;51.512;7.504;2023-09-19T08:55:51;19.40;1.00
5415;DHT22;2730;51.512;7.504;2023-09-19T08:58:22;19.40;1.00
5415;DHT22;2730;51.512;7.504;2023-09-19T09:00:54;19.70;1.00
5415;DHT22;2730;51.512;7.504;2023-09-19T09:03:22;19.80;1.00
5415;DHT22;2730;51.512;7.504;2023-09-19T09:05:51;19.80;1.00
5415;DHT22;2730;51.512;7.504;2023-09-19T09:08:19;20.20;1.00
5415;DHT22;2730;51.512;7.504;2023-09-19T09:10:47;20.40;1.00
5415;DHT22;2730;51.512;7.504;2023-09-19T09:13:17;20.60;1.00
5415;DHT22;2730;51.512;7.504;2023-09-19T09:15:44;21.00;1.00
5415;DHT22;2730;51.512;7.504;2023-09-19T09:18:11;20.60;1.00
5415;DHT22;2730;51.512;7.504;2023-09-19T09:20:38;20.70;99.90
5415;DHT22;2730;51.512;7.504;2023-09-19T09:23:05;20.50;99.90
5415;DHT22;2730;51.512;7.504;2023-09-19T09:25:49;20.40;99.90
5415;DHT22;2730;51.512;7.504;2023-09-19T09:28:22;20.50;99.90
5415;DHT22;2730;51.512;7.504;2023-09-19T09:30:50;20.90;99.90
5415;DHT22;2730;51.512;7.504;2023-09-19T09:33:17;20.90;99.90
5415;DHT22;2730;51.512;7.504;2023-09-19T09:35:51;21.20;99.90
5415;DHT22;2730;51.512;7.504;2023-09-19T09:38:23;21.10;99.90
5415;DHT22;2730;51.512;7.504;2023-09-19T09:40:54;21.20;99.90
5415;DHT22;2730;51.512;7.504;2023-09-19T09:43:33;21.50;99.90
5415;DHT22;2730;51.512;7.504;2023-09-19T09:46:11;21.70;99.90
5415;DHT22;2730;51.512;7.504;2023-09-19T09:48:57;22.10;99.90
5415;DHT22;2730;51.512;7.504;2023-09-19T09:51:38;22.30;99.90
5415;DHT22;2730;51.512;7.504;2023-09-19T09:54:11;22.20;99.90
5415;DHT22;2730;51.512;7.504;2023-09-19T09:56:52;22.10;99.90
5415;DHT22;2730;51.512;7.504;2023-09-19T09:59:21;22.20;99.90
5415;DHT22;2730;51.512;7.504;2023-09-19T10:01:49;21.60;99.90
5415;DHT22;2730;51.512;7.504;2023-09-19T10:04:27;21.90;99.90
5415;DHT22;2730;51.512;7.504;2023-09-19T10:06:56;22.20;99.90
5415;DHT22;2730;51.512;7.504;2023-09-19T10:09:23;21.80;99.90
5415;DHT22;2730;51.512;7.504;2023-09-19T10:12:05;21.80;99.90
5415;DHT22;2730;51.512;7.504;2023-09-19T10:14:38;21.20;99.90
5415;DHT22;2730;51.512;7.504;2023-09-19T10:17:05;21.20;99.90
5415;DHT22;2730;51.512;7.504;2023-09-19T10:19:37;21.60;99.90
5415;DHT22;2730;51.512;7.504;2023-09-19T10:22:06;22.00;99.90
5415;DHT22;2730;51.512;7.504;2023-09-19T10:24:35;22.20;99.90
5415;DHT22;2730;51.512;7.504;2023-09-19T10:27:04;22.60;99.90
5415;DHT22;2730;51.512;7.504;2023-09-19T10:29:36;22.50;99.90
5415;DHT22;2730;51.512;7.504;2023-09-19T10:32:06;22.30;99.90
5415;DHT22;2730;51.512;7.504;2023-09-19T10:34:35;22.40;99.90
5415;DHT22;2730;51.512;7.504;2023-09-19T10:37:03;22.60;99.90
5415;DHT22;2730;51.512;7.504;2023-09-19T10:39:32;22.50;97.70
5415;DHT22;2730;51.512;7.504;2023-09-19T10:42:02;23.30;75.40
5415;DHT22;2730;51.512;7.504;2023-09-19T10:44:32;23.30;37.90
5415;DHT22;2730;51.512;7.504;2023-09-19T10:47:00;23.60;28.40
5415;DHT22;2730;51.512;7.504;2023-09-19T10:49:32;23.50;9.30
5415;DHT22;2730;51.512;7.504;2023-09-19T10:51:59;23.40;2.50
5415;DHT22;2730;51.512;7.504;2023-09-19T10:54:31;23.50;1.00
5415;DHT22;2730;51.512;7.504;2023-09-19T10:56:59;23.40;1.00
5415;DHT22;2730;51.512;7.504;2023-09-19T10:59:30;22.40;2.00
5415;DHT22;2730;51.512;7.504;2023-09-19T11:02:16;21.90;5.50
5415;DHT22;2730;51.512;7.504;2023-09-19T11:04:43;21.40;10.60
5415;DHT22;2730;51.512;7.504;2023-09-19T11:07:14;21.30;14.20
5415;DHT22;2730;51.512;7.504;2023-09-19T11:09:48;21.30;17.90
5415;DHT22;2730;51.512;7.504;2023-09-19T11:12:48;21.20;20.30
5415;DHT22;2730;51.512;7.504;2023-09-19T11:18:52;21.00;14.30
5415;DHT22;2730;51.512;7.504;2023-09-19T11:21:52;21.20;13.30
5415;DHT22;2730;51.512;7.504;2023-09-19T11:24:28;21.30;7.30
5415;DHT22;2730;51.512;7.504;2023-09-19T11:27:10;21.30;19.40
5415;DHT22;2730;51.512;7.504;2023-09-19T11:29:39;21.40;22.40
5415;DHT22;2730;51.512;7.504;2023-09-19T11:32:06;21.30;10.10
5415;DHT22;2730;51.512;7.504;2023-09-19T11:34:49;21.20;9.70
5415;DHT22;2730;51.512;7.504;2023-09-19T11:40:28;21.20;17.40
5415;DHT22;2730;51.512;7.504;2023-09-19T11:42:56;21.20;14.70
5415;DHT22;2730;51.512;7.504;2023-09-19T11:48:27;21.20;14.60
5415;DHT22;2730;51.512;7.504;2023-09-19T11:50:56;20.80;22.60
5415;DHT22;2730;51.512;7.504;2023-09-19T11:53:31;20.70;5.30
5415;DHT22;2730;51.512;7.504;2023-09-19T11:56:02;20.60;10.30
5415;DHT22;2730;51.512;7.504;2023-09-19T11:58:32;20.50;17.20
5415;DHT22;2730;51.512;7.504;2023-09-19T12:01:00;20.50;9.90
5415;DHT22;2730;51.512;7.504;2023-09-19T12:03:34;20.40;10.80
5415;DHT22;2730;51.512;7.504;2023-09-19T12:06:12;20.40;9.10
5415;DHT22;2730;51.512;7.504;2023-09-19T12:08:41;20.50;10.20
5415;DHT22;2730;51.512;7.504;2023-09-19T12:11:15;20.60;16.10
5415;DHT22;2730;51.512;7.504;2023-09-19T12:13:44;20.60;13.90
5415;DHT22;2730;51.512;7.504;2023-09-19T12:16:13;20.60;15.30
5415;DHT22;2730;51.512;7.504;2023-09-19T12:18:41;20.60;13.20
5415;DHT22;2730;51.512;7.504;2023-09-19T12:21:23;20.70;20.70
5415;DHT22;2730;51.512;7.504;2023-09-19T12:24:07;20.70;18.90
5415;DHT22;2730;51.512;7.504;2023-09-19T12:26:40;20.80;15.80
5415;DHT22;2730;51.512;7.504;2023-09-19T12:29:16;20.80;7.40
5415;DHT22;2730;51.512;7.504;2023-09-19T12:31:51;20.80;10.50
5415;DHT22;2730;51.512;7.504;2023-09-19T12:34:21;20.70;9.50
5415;DHT22;2730;51.512;7.504;2023-09-19T12:37:03;20.80;7.80
5415;DHT22;2730;51.512;7.504;2023-09-19T12:39:31;20.80;8.20
5415;DHT22;2730;51.512;7.504;2023-09-19T12:41:59;20.60;6.50
5415;DHT22;2730;51.512;7.504;2023-09-19T12:44:29;20.70;15.10
5415;DHT22;2730;51.512;7.504;2023-09-19T12:46:56;20.60;13.20
5415;DHT22;2730;51.512;7.504;2023-09-19T12:49:24;20.80;15.60
5415;DHT22;2730;51.512;7.504;2023-09-19T12:51:55;20.80;2.40
5415;DHT22;2730;51.512;7.504;2023-09-19T12:54:25;20.60;1.00
5415;DHT22;2730;51.512;7.504;2023-09-19T12:56:52;20.60;1.00
5415;DHT22;2730;51.512;7.504;2023-09-19T12:59:29;20.60;1.00
5415;DHT22;2730;51.512;7.504;2023-09-19T13:02:04;20.60;1.00
5415;DHT22;2730;51.512;7.504;2023-09-19T13:04:33;20.60;1.00
5415;DHT22;2730;51.512;7.504;2023-09-19T13:07:07;20.60;1.00
5415;DHT22;2730;51.512;7.504;2023-09-19T13:09:34;20.70;1.00
5415;DHT22;2730;51.512;7.504;2023-09-19T13:12:01;20.70;1.00
5415;DHT22;2730;51.512;7.504;2023-09-19T13:14:30;20.70;1.00
5415;DHT22;2730;51.512;7.504;2023-09-19T13:17:00;20.80;1.00
5415;DHT22;2730;51.512;7.504;2023-09-19T13:19:41;20.90;1.00
5415;DHT22;2730;51.512;7.504;2023-09-19T13:22:39;20.90;1.00
5415;DHT22;2730;51.512;7.504;2023-09-19T13:25:08;21.00;1.00
5415;DHT22;2730;51.512;7.504;2023-09-19T13:27:40;21.10;1.00
5415;DHT22;2730;51.512;7.504;2023-09-19T13:30:08;21.10;1.00
5415;DHT22;2730;51.512;7.504;2023-09-19T13:32:35;21.00;1.00
5415;DHT22;2730;51.512;7.504;2023-09-19T13:35:06;20.80;1.00
5415;DHT22;2730;51.512;7.504;2023-09-19T13:37:34;20.80;1.00
5415;DHT22;2730;51.512;7.504;2023-09-19T13:40:06;20.80;1.00
5415;DHT22;2730;51.512;7.504;2023-09-19T13:42:33;20.90;1.00
5415;DHT22;2730;51.512;7.504;2023-09-19T13:45:02;20.90;1.00
5415;DHT22;2730;51.512;7.504;2023-09-19T13:47:30;20.90;1.00
5415;DHT22;2730;51.512;7.504;2023-09-19T13:49:58;20.90;1.00
5415;DHT22;2730;51.512;7.504;2023-09-19T13:52:26;20.90;1.00
5415;DHT22;2730;51.512;7.504;2023-09-19T13:54:55;20.80;1.00
5415;DHT22;2730;51.512;7.504;2023-09-19T13:57:23;20.90;1.00
5415;DHT22;2730;51.512;7.504;2023-09-19T13:59:51;21.00;1.00
5415;DHT22;2730;51.512;7.504;2023-09-19T14:02:20;20.90;1.00
5415;DHT22;2730;51.512;7.504;2023-09-19T14:04:48;20.80;1.00
5415;DHT22;2730;51.512;7.504;2023-09-19T14:07:14;20.90;1.00
5415;DHT22;2730;51.512;7.504;2023-09-19T14:09:43;20.90;1.00
5415;DHT22;2730;51.512;7.504;2023-09-19T14:12:11;20.80;1.00
5415;DHT22;2730;51.512;7.504;2023-09-19T14:14:39;20.70;1.00
5415;DHT22;2730;51.512;7.504;2023-09-19T14:17:06;20.70;1.00
5415;DHT22;2730;51.512;7.504;2023-09-19T14:19:34;20.70;1.00
5415;DHT22;2730;51.512;7.504;2023-09-19T14:22:02;20.80;1.00
5415;DHT22;2730;51.512;7.504;2023-09-19T14:24:33;20.90;1.00
5415;DHT22;2730;51.512;7.504;2023-09-19T14:27:00;20.90;1.00
5415;DHT22;2730;51.512;7.504;2023-09-19T14:29:29;21.00;1.00
5415;DHT22;2730;51.512;7.504;2023-09-19T14:31:57;21.00;1.00
5415;DHT22;2730;51.512;7.504;2023-09-19T14:34:24;21.10;1.00
5415;DHT22;2730;51.512;7.504;2023-09-19T14:36:51;21.00;1.00
5415;DHT22;2730;51.512;7.504;2023-09-19T14:39:19;20.90;1.00
5415;DHT22;2730;51.512;7.504;2023-09-19T14:41:46;20.80;1.00
5415;DHT22;2730;51.512;7.504;2023-09-19T14:44:13;20.80;1.00
5415;DHT22;2730;51.512;7.504;2023-09-19T14:46:41;20.80;1.00
5415;DHT22;2730;51.512;7.504;2023-09-19T14:49:10;20.80;1.00
5415;DHT22;2730;51.512;7.504;2023-09-19T14:51:38;20.90;1.00
5415;DHT22;2730;51.512;7.504;2023-09-19T14:54:06;20.80;1.00
5415;DHT22;2730;51.512;7.504;2023-09-19T14:56:33;20.90;1.00
5415;DHT22;2730;51.512;7.504;2023-09-19T14:59:00;20.80;1.00
5415;DHT22;2730;51.512;7.504;2023-09-19T15:01:28;20.80;1.00
5415;DHT22;2730;51.512;7.504;2023-09-19T15:03:55;20.80;1.00
5415;DHT22;2730;51.512;7.504;2023-09-19T15:06:23;20.70;1.00
5415;DHT22;2730;51.512;7.504;2023-09-19T15:08:51;20.60;1.00
5415;DHT22;2730;51.512;7.504;2023-09-19T15:11:18;20.60;1.00
5415;DHT22;2730;51.512;7.504;2023-09-19T15:13:46;20.60;1.00
5415;DHT22;2730;51.512;7.504;2023-09-19T15:16:14;20.60;1.00
5415;DHT22;2730;51.512;7.504;2023-09-19T15:18:42;20.50;1.00
5415;DHT22;2730;51.512;7.504;2023-09-19T15:21:10;20.40;1.00
5415;DHT22;2730;51.512;7.504;2023-09-19T15:23:39;20.50;1.00
5415;DHT22;2730;51.512;7.504;2023-09-19T15:26:08;20.40;1.00
5415;DHT22;2730;51.512;7.504;2023-09-19T15:28:35;20.30;4.40
5415;DHT22;2730;51.512;7.504;2023-09-19T15:31:04;20.30;1.00
5415;DHT22;2730;51.512;7.504;2023-09-19T15:33:31;20.40;4.40
5415;DHT22;2730;51.512;7.504;2023-09-19T15:36:03;20.30;1.70
5415;DHT22;2730;51.512;7.504;2023-09-19T15:38:30;20.20;8.10
5415;DHT22;2730;51.512;7.504;2023-09-19T15:40:59;20.20;13.60
5415;DHT22;2730;51.512;7.504;2023-09-19T15:43:26;20.10;14.20
5415;DHT22;2730;51.512;7.504;2023-09-19T15:45:53;20.00;20.10
5415;DHT22;2730;51.512;7.504;2023-09-19T15:48:20;19.90;21.00
5415;DHT22;2730;51.512;7.504;2023-09-19T15:50:47;19.80;28.30
5415;DHT22;2730;51.512;7.504;2023-09-19T15:53:14;19.80;29.50
5415;DHT22;2730;51.512;7.504;2023-09-19T15:55:42;19.70;32.60
5415;DHT22;2730;51.512;7.504;2023-09-19T15:58:12;19.70;37.40
5415;DHT22;2730;51.512;7.504;2023-09-19T16:00:42;19.70;43.50
5415;DHT22;2730;51.512;7.504;2023-09-19T16:03:09;19.70;44.30
5415;DHT22;2730;51.512;7.504;2023-09-19T16:05:36;19.80;44.60
5415;DHT22;2730;51.512;7.504;2023-09-19T16:08:05;19.80;47.10
5415;DHT22;2730;51.512;7.504;2023-09-19T16:10:34;19.90;49.00
5415;DHT22;2730;51.512;7.504;2023-09-19T16:13:03;19.90;53.70
5415;DHT22;2730;51.512;7.504;2023-09-19T16:15:31;19.90;48.30
5415;DHT22;2730;51.512;7.504;2023-09-19T16:17:59;19.80;50.90
5415;DHT22;2730;51.512;7.504;2023-09-19T16:20:28;19.70;58.20
5415;DHT22;2730;51.512;7.504;2023-09-19T16:22:55;19.70;54.20
5415;DHT22;2730;51.512;7.504;2023-09-19T16:25:21;19.60;67.80
5415;DHT22;2730;51.512;7.504;2023-09-19T16:27:49;19.50;65.90
5415;DHT22;2730;51.512;7.504;2023-09-19T16:30:16;19.50;65.00
5415;DHT22;2730;51.512;7.504;2023-09-19T16:32:45;19.40;69.20
5415;DHT22;2730;51.512;7.504;2023-09-19T16:35:12;19.40;70.00
5415;DHT22;2730;51.512;7.504;2023-09-19T16:37:39;19.30;78.70
5415;DHT22;2730;51.512;7.504;2023-09-19T16:40:07;19.20;81.20